Tignish, Canada
Current Conditions -  °F | °C
As of 12:17 AM on Thursday 27 Nov 2014 (Local Time) from CYYG Reporting Station
Light Snow Light Snow  
Wind Chill: 21°   Ceiling: 400
Heat Index: 32°   Visibility: 0.75mi
Dew Point: 32°   Wind: 16mph
Humidity: 100%   Direction: 40°NE
Pressure: 29.98"   Gusts: NA
Location:  46.95°N, 64.03°W
Report Text: CYYG 270417Z 04014KT 3/4SM R03/P6000FT/D -SN VV004 00/M00 A2998 RMK SN8 SN WET PRESFR SLP154
Loading
Personal Weather Stations






























Interactive Weather Map New forecast layout! Learn more

10-Day Weather Forecast

Advertisements
Track Severe Weather on mobile